• Join FlightAware (Why Join?)
  • Login
  • US Flag 
05:46AM EDT


 

Airport Tracker/Info


-or-


 

Live Flight TrackerFlight Track Log ✈ CSN6115 ✈ 21-Jun-2013 ✈ ZYTX / SHE - ZBAA / PEK

Flight Track Log - Related Links

Times and Time Zones

All times are in EDT time to prevent confusion due to time zone crossing. See the CSN6115 flight status page for this flight to view local times or setup timezone preferences in your user account.

Time Position Orientation Groundspeed Altitude Reporting Facility
EDT Latitude Longitude Course Direction KTS MPH feet Rate Location/Type
09:59AM 41.6152 123.3550 256° West  Level Estimated
10:00AM 41.5904 123.2267 256° West  Level Estimated
10:01AM 41.5654 123.0985 255° West  Level Estimated
10:02AM 41.5404 122.9704 255° West  Level Estimated
10:03AM 41.5151 122.8424 255° West  Level Estimated
10:04AM 41.4897 122.7145 255° West  Level Estimated
10:05AM 41.4642 122.5866 255° West  Level Estimated
10:06AM 41.4386 122.4589 255° West  Level Estimated
10:07AM 41.4128 122.3313 255° West  Level Estimated
10:08AM 41.3869 122.2038 255° West  Level Estimated
10:09AM 41.3608 122.0764 255° West  Level Estimated
10:10AM 41.3346 121.9491 255° West  Level Estimated
10:11AM 41.3082 121.8219 255° West  Level Estimated
10:12AM 41.2817 121.6948 255° West  Level Estimated
10:13AM 41.2551 121.5678 254° West  Level Estimated
10:14AM 41.2283 121.4409 254° West  Level Estimated
10:15AM 41.2014 121.3141 254° West  Level Estimated
10:16AM 41.1743 121.1874 254° West  Level Estimated
10:17AM 41.1471 121.0609 254° West  Level Estimated
10:18AM 41.1198 120.9344 254° West  Level Estimated
10:19AM 41.0924 120.8080 254° West  Level Estimated
10:20AM 41.0647 120.6818 254° West  Level Estimated
10:21AM 41.0370 120.5556 254° West  Level Estimated
10:22AM 41.0091 120.4296 254° West  Level Estimated
10:23AM 40.9811 120.3036 254° West  Level Estimated
10:24AM 40.9529 120.1778 254° West  Level Estimated
10:25AM 40.9246 120.0520 253° West  Level Estimated
10:26AM 40.8962 119.9264 253° West  Level Estimated
10:27AM 40.8676 119.8009 253° West  Level Estimated
10:28AM 40.8390 119.6755 253° West  Level Estimated
10:29AM 40.8101 119.5502 253° West  Level Estimated
10:30AM 40.7811 119.4250 253° West  Level Estimated
10:31AM 40.7520 119.2999 253° West  Level Estimated
10:32AM 40.7228 119.1750 253° West  Level Estimated
10:33AM 40.6934 119.0501 253° West  Level Estimated
10:34AM 40.6639 118.9254 253° West  Level Estimated
10:35AM 40.6343 118.8007 253° West  Level Estimated
10:36AM 40.6045 118.6762 253° West  Level Estimated
10:37AM 40.5746 118.5518 252° West  Level Estimated
10:38AM 40.5445 118.4275 252° West  Level Estimated
10:39AM 40.5143 118.3033 252° West  Level Estimated
10:40AM 40.4840 118.1792 252° West  Level Estimated
10:41AM 40.4536 118.0553 252° West  Level Estimated
10:42AM 40.4230 117.9314 252° West  Level Estimated
10:43AM 40.3923 117.8077 252° West  Level Estimated
10:43AM 40.1700 116.7410 252° West 225 259 9,000  Level FlightAware
10:44AM 40.3615 117.6840 252° West  Level Estimated
10:44AM 40.1200 116.7390 182° South 206 237 9,000  Level FlightAware
10:45AM 40.0810 116.7360 183° South 204 235 8,800 -1,200 Descending FlightAware
10:46AM 40.0340 116.7360 180° South 200 230 7,200 -1,680 Descending FlightAware
10:46AM 40.0100 116.7380 176° South 196 226 6,700 -1,080 Descending FlightAware
10:47AM 39.9900 116.7390 178° South 195 224 6,200 -540 Descending FlightAware
10:47AM 39.9690 116.7420 174° South 195 224 6,200  Level FlightAware
10:50AM 40.0801 116.5846 313° West  Level Estimated
10:51AM 40.0801 116.5846 288° West  Level Estimated
10:52AM 40.0801 116.5846 288° West  Level Estimated
10:53AM 40.0801 116.5846 288° West  Level Estimated
10:54AM 40.0801 116.5846 288° West  Level Estimated
10:55AM 40.0801 116.5846 288° West  Level Estimated
10:56AM 40.0801 116.5846 288° West  Level Estimated
10:57AM 40.0801 116.5846 288° West  Level Estimated
10:58AM 40.0801 116.5846 288° West  Level Estimated
10:59AM 40.0801 116.5846 288° West  Level Estimated
11:00AM 40.0801 116.5846 288° West  Level Estimated
11:01AM 40.0801 116.5846 288° West  Level Estimated
11:02AM 40.0801 116.5846 288° West  Level Estimated
11:03AM 40.0801 116.5846 288° West  Level Estimated
11:04AM 40.0801 116.5846 288° West  Level Estimated
11:05AM 40.0801 116.5846 288° West  Level Estimated
11:06AM 40.0801 116.5846 288° West  Level Estimated
11:07AM 40.0801 116.5846 288° West  Level Estimated